createdAt,value
2018-08-03T00:00:00.414Z,18.90
2018-08-03T00:02:29.105Z,21.57
2018-08-03T00:04:57.739Z,20.50
2018-08-03T00:07:26.561Z,20.87
2018-08-03T00:09:55.352Z,19.73
2018-08-03T00:12:24.059Z,20.40
2018-08-03T00:14:52.798Z,21.70
2018-08-03T00:17:21.513Z,20.87
2018-08-03T00:19:50.177Z,21.10
2018-08-03T00:22:18.869Z,19.50
2018-08-03T00:24:47.644Z,20.20
2018-08-03T00:27:16.369Z,21.00
2018-08-03T00:29:45.132Z,19.10
2018-08-03T00:32:13.955Z,20.40
2018-08-03T00:34:42.829Z,21.27
2018-08-03T00:37:11.622Z,20.27
2018-08-03T00:39:40.388Z,19.97
2018-08-03T00:42:09.198Z,20.73
2018-08-03T00:44:37.994Z,19.87
2018-08-03T00:47:06.767Z,20.43
2018-08-03T00:49:35.517Z,18.70
2018-08-03T00:52:04.267Z,18.87
2018-08-03T00:54:33.109Z,19.37
2018-08-03T00:57:01.845Z,19.00
2018-08-03T00:59:30.594Z,19.20
2018-08-03T01:01:59.255Z,19.47
2018-08-03T01:04:27.982Z,19.97
2018-08-03T01:06:56.698Z,17.90
2018-08-03T01:09:25.438Z,17.67
2018-08-03T01:11:54.129Z,19.00
2018-08-03T01:14:22.901Z,17.87
2018-08-03T01:16:51.678Z,19.17
2018-08-03T01:19:20.450Z,18.60
2018-08-03T01:21:49.218Z,17.83
2018-08-03T01:24:17.949Z,17.13
2018-08-03T01:26:46.741Z,18.07
2018-08-03T01:29:15.491Z,17.53
2018-08-03T01:31:44.312Z,18.13
2018-08-03T01:34:13.162Z,17.60
2018-08-03T01:36:41.889Z,17.80
2018-08-03T01:39:10.626Z,18.63
2018-08-03T01:41:39.350Z,16.43
2018-08-03T01:44:08.145Z,18.27
2018-08-03T01:46:36.863Z,16.23
2018-08-03T01:49:05.596Z,17.90
2018-08-03T01:51:34.329Z,17.70
2018-08-03T01:54:03.042Z,18.43
2018-08-03T01:56:31.811Z,17.13
2018-08-03T01:59:00.558Z,17.83
2018-08-03T02:01:29.295Z,17.10
2018-08-03T02:03:58.004Z,14.90
2018-08-03T02:06:28.775Z,16.27
2018-08-03T02:08:57.538Z,16.00
2018-08-03T02:11:31.698Z,15.27
2018-08-03T02:14:00.433Z,14.37
2018-08-03T02:16:29.182Z,13.90
2018-08-03T02:18:57.901Z,15.00
2018-08-03T02:21:26.645Z,14.53
2018-08-03T02:23:55.393Z,13.77
2018-08-03T02:26:24.180Z,14.70
2018-08-03T02:28:53.342Z,14.50
2018-08-03T02:31:22.095Z,14.83
2018-08-03T02:33:51.098Z,15.30
2018-08-03T02:36:19.821Z,15.40
2018-08-03T02:38:48.567Z,14.60
2018-08-03T02:41:17.311Z,13.97
2018-08-03T02:43:46.016Z,13.60
2018-08-03T02:46:14.815Z,13.80
2018-08-03T02:48:43.561Z,14.10
2018-08-03T02:51:12.291Z,14.50
2018-08-03T02:53:41.019Z,14.17
2018-08-03T02:56:09.725Z,14.50
2018-08-03T02:58:38.479Z,14.17
2018-08-03T03:01:07.425Z,13.97
2018-08-03T03:03:36.224Z,13.63
2018-08-03T03:06:05.055Z,14.90
2018-08-03T03:08:33.800Z,13.63
2018-08-03T03:11:02.530Z,14.40
2018-08-03T03:13:31.311Z,14.53
2018-08-03T03:16:00.063Z,14.70
2018-08-03T03:18:28.769Z,14.73
2018-08-03T03:20:57.604Z,13.87
2018-08-03T03:23:26.446Z,15.07
2018-08-03T03:25:55.169Z,14.87
2018-08-03T03:28:23.937Z,15.03
2018-08-03T03:30:52.667Z,15.03
2018-08-03T03:33:21.415Z,14.33
2018-08-03T03:35:50.123Z,15.00
2018-08-03T03:38:18.877Z,14.43
2018-08-03T03:40:47.611Z,16.53
2018-08-03T03:43:16.404Z,16.13
2018-08-03T03:45:45.199Z,14.90
2018-08-03T03:48:13.994Z,16.03
2018-08-03T03:50:42.746Z,15.93
2018-08-03T03:53:11.646Z,15.13
2018-08-03T03:55:40.411Z,15.27
2018-08-03T03:58:09.227Z,15.77
2018-08-03T04:00:37.942Z,16.33
2018-08-03T04:03:06.702Z,17.07
2018-08-03T04:05:35.407Z,16.83
2018-08-03T04:08:04.197Z,17.07
2018-08-03T04:10:32.921Z,16.83
2018-08-03T04:13:01.702Z,17.87
2018-08-03T04:15:30.420Z,17.53
2018-08-03T04:17:59.135Z,17.60
2018-08-03T04:20:27.898Z,16.30
2018-08-03T04:22:56.598Z,16.80
2018-08-03T04:25:25.591Z,17.43
2018-08-03T04:27:54.379Z,17.30
2018-08-03T04:30:23.053Z,17.70
2018-08-03T04:32:51.660Z,17.20
2018-08-03T04:35:20.413Z,17.57
2018-08-03T04:37:49.126Z,16.77
2018-08-03T04:40:17.879Z,16.70
2018-08-03T04:42:46.577Z,16.93
2018-08-03T04:45:15.295Z,18.53
2018-08-03T04:47:44.043Z,16.90
2018-08-03T04:50:12.733Z,16.40
2018-08-03T04:52:41.446Z,16.07
2018-08-03T04:55:10.490Z,17.40
2018-08-03T04:57:39.449Z,16.80
2018-08-03T05:00:08.337Z,18.00
2018-08-03T05:02:38.619Z,16.73
2018-08-03T05:05:07.473Z,17.70
2018-08-03T05:07:36.173Z,16.20
2018-08-03T05:10:05.337Z,17.00
2018-08-03T05:12:34.123Z,15.87
2018-08-03T05:15:02.810Z,14.90
2018-08-03T05:17:31.540Z,16.97
2018-08-03T05:20:00.285Z,16.70
2018-08-03T05:22:29.066Z,15.83
2018-08-03T05:24:57.742Z,15.80
2018-08-03T05:27:26.478Z,16.70
2018-08-03T05:29:55.248Z,16.30
2018-08-03T05:32:23.998Z,16.13
2018-08-03T05:34:52.706Z,17.00
2018-08-03T05:37:21.419Z,17.20
2018-08-03T05:39:50.277Z,15.57
2018-08-03T05:42:19.178Z,17.80
2018-08-03T05:44:47.908Z,16.13
2018-08-03T05:47:16.827Z,15.33
2018-08-03T05:49:45.654Z,16.93
2018-08-03T05:52:14.505Z,16.53
2018-08-03T05:54:43.298Z,16.90
2018-08-03T05:57:12.083Z,17.37
2018-08-03T05:59:41.097Z,17.40
2018-08-03T06:02:10.079Z,16.67
2018-08-03T06:04:38.921Z,16.97
2018-08-03T06:07:08.685Z,16.00
2018-08-03T06:09:37.515Z,17.03
2018-08-03T06:12:06.290Z,16.43
2018-08-03T06:14:35.072Z,15.90
2018-08-03T06:17:03.925Z,15.27
2018-08-03T06:19:33.429Z,15.70
2018-08-03T06:22:02.277Z,16.87
2018-08-03T06:24:31.378Z,15.53
2018-08-03T06:27:00.397Z,15.40
2018-08-03T06:29:29.329Z,16.30
2018-08-03T06:31:58.062Z,16.90
2018-08-03T06:34:26.845Z,16.50
2018-08-03T06:36:55.692Z,16.50
2018-08-03T06:39:24.542Z,17.47
2018-08-03T06:41:53.569Z,15.20
2018-08-03T06:44:22.611Z,17.60
2018-08-03T06:46:51.432Z,15.10
2018-08-03T06:49:20.182Z,16.13
2018-08-03T06:51:49.006Z,16.27
2018-08-03T06:54:19.430Z,16.00
2018-08-03T06:56:48.334Z,16.23
2018-08-03T06:59:17.178Z,15.37
2018-08-03T07:01:46.226Z,16.43
2018-08-03T07:04:15.369Z,15.70
2018-08-03T07:06:44.130Z,15.87
2018-08-03T07:09:13.432Z,16.03
2018-08-03T07:11:42.094Z,16.33
2018-08-03T07:14:11.041Z,15.03
2018-08-03T07:16:40.114Z,16.20
2018-08-03T07:19:08.908Z,15.83
2018-08-03T07:21:37.581Z,15.63
2018-08-03T07:24:06.775Z,14.00
2018-08-03T07:26:35.639Z,15.40
2018-08-03T07:29:04.576Z,13.80
2018-08-03T07:31:38.464Z,15.67
2018-08-03T07:34:08.188Z,15.37
2018-08-03T07:36:37.126Z,15.20
2018-08-03T07:39:07.725Z,15.70
2018-08-03T07:41:36.542Z,15.73
2018-08-03T07:44:05.603Z,14.87
2018-08-03T07:46:34.436Z,16.00
2018-08-03T07:49:03.202Z,16.50
2018-08-03T07:51:31.975Z,16.10
2018-08-03T07:54:00.799Z,15.37
2018-08-03T07:56:29.575Z,14.97
2018-08-03T07:58:58.342Z,15.83
2018-08-03T08:01:27.090Z,16.23
2018-08-03T08:03:55.939Z,15.20
2018-08-03T08:06:24.870Z,15.20
2018-08-03T08:08:53.630Z,15.20
2018-08-03T08:11:22.449Z,15.60
2018-08-03T08:13:51.167Z,13.70
2018-08-03T08:16:19.862Z,14.40
2018-08-03T08:18:48.550Z,15.17
2018-08-03T08:21:17.257Z,14.80
2018-08-03T08:23:46.042Z,15.40
2018-08-03T08:26:14.892Z,15.07
2018-08-03T08:28:43.517Z,14.70
2018-08-03T08:31:12.326Z,13.53
2018-08-03T08:33:41.006Z,14.93
2018-08-03T08:36:09.906Z,14.60
2018-08-03T08:38:38.693Z,14.00
2018-08-03T08:41:07.751Z,15.10
2018-08-03T08:43:36.594Z,15.47
2018-08-03T08:46:05.161Z,14.40
2018-08-03T08:48:33.831Z,14.93
2018-08-03T08:51:02.587Z,15.47
2018-08-03T08:53:31.529Z,15.50
2018-08-03T08:56:00.307Z,15.43
2018-08-03T08:58:29.069Z,15.23
2018-08-03T09:00:57.836Z,15.43
2018-08-03T09:03:26.667Z,16.67
2018-08-03T09:05:55.731Z,15.97
2018-08-03T09:08:24.833Z,15.80
2018-08-03T09:10:54.984Z,15.97
2018-08-03T09:13:24.599Z,15.67
2018-08-03T09:15:55.310Z,15.40
2018-08-03T09:18:24.900Z,17.07
2018-08-03T09:20:55.662Z,16.67
2018-08-03T09:23:25.581Z,14.00
2018-08-03T09:25:56.097Z,16.00
2018-08-03T09:28:25.901Z,14.30
2018-08-03T09:30:57.470Z,14.57
2018-08-03T09:33:27.659Z,14.10
2018-08-03T09:35:56.471Z,13.90
2018-08-03T09:38:26.239Z,14.10
2018-08-03T09:40:56.587Z,13.70
2018-08-03T09:43:25.378Z,13.57
2018-08-03T09:45:54.017Z,13.27
2018-08-03T09:48:22.767Z,13.50
2018-08-03T09:50:51.495Z,13.47
2018-08-03T09:53:20.228Z,13.97
2018-08-03T09:55:49.088Z,12.50
2018-08-03T09:58:17.909Z,12.20
2018-08-03T10:00:51.875Z,11.87
2018-08-03T10:03:20.612Z,11.87
2018-08-03T10:05:49.281Z,12.27
2018-08-03T10:08:17.969Z,11.70
2018-08-03T10:10:46.609Z,12.20
2018-08-03T10:13:16.172Z,12.27
2018-08-03T10:15:44.949Z,12.57
2018-08-03T10:18:13.674Z,11.87
2018-08-03T10:20:42.407Z,11.00
2018-08-03T10:23:11.149Z,11.50
2018-08-03T10:25:39.905Z,11.93
2018-08-03T10:28:08.638Z,11.60
2018-08-03T10:30:38.604Z,12.50
2018-08-03T10:33:07.836Z,11.30
2018-08-03T10:35:36.574Z,10.23
2018-08-03T10:38:05.210Z,10.80
2018-08-03T10:40:33.941Z,11.77
2018-08-03T10:43:02.822Z,11.50
2018-08-03T10:45:31.555Z,11.70
2018-08-03T10:48:00.372Z,10.23
2018-08-03T10:50:29.203Z,10.00
2018-08-03T10:53:02.431Z,9.40
2018-08-03T10:55:34.517Z,9.30
2018-08-03T10:58:03.541Z,9.90
2018-08-03T11:00:32.884Z,9.27
2018-08-03T11:03:01.842Z,10.43
2018-08-03T11:05:30.749Z,9.30
2018-08-03T11:07:59.437Z,9.73
2018-08-03T11:10:28.588Z,9.80
2018-08-03T11:12:57.417Z,10.13
2018-08-03T11:15:26.189Z,10.20
2018-08-03T11:17:54.931Z,9.63
2018-08-03T11:20:23.767Z,10.07
2018-08-03T11:22:52.471Z,9.10
2018-08-03T11:25:21.300Z,9.03
2018-08-03T11:27:50.024Z,9.07
2018-08-03T11:30:18.851Z,8.40
2018-08-03T11:32:47.539Z,8.40
2018-08-03T11:35:17.525Z,9.17
2018-08-03T11:37:52.854Z,9.47
2018-08-03T11:40:21.613Z,9.47
2018-08-03T11:42:50.340Z,9.27
2018-08-03T11:45:19.218Z,9.03
2018-08-03T11:47:48.163Z,9.20
2018-08-03T11:50:17.128Z,8.70
2018-08-03T11:52:45.836Z,8.30
2018-08-03T11:55:14.633Z,9.10
2018-08-03T11:57:43.337Z,8.13
2018-08-03T12:00:12.208Z,8.70
2018-08-03T12:02:40.892Z,9.43
2018-08-03T12:05:09.656Z,8.67
2018-08-03T12:07:38.429Z,9.07
2018-08-03T12:10:07.147Z,8.57
2018-08-03T12:12:35.909Z,8.20
2018-08-03T12:15:04.621Z,8.60
2018-08-03T12:17:33.435Z,9.13
2018-08-03T12:20:02.151Z,8.17
2018-08-03T12:22:30.878Z,7.90
2018-08-03T12:24:59.559Z,6.73
2018-08-03T12:27:28.253Z,5.90
2018-08-03T12:29:56.950Z,5.70
2018-08-03T12:32:26.020Z,6.10
2018-08-03T12:34:55.170Z,5.90
2018-08-03T12:37:23.958Z,4.47
2018-08-03T12:39:52.659Z,5.67
2018-08-03T12:42:21.377Z,5.70
2018-08-03T12:44:50.055Z,5.50
2018-08-03T12:47:18.759Z,6.07
2018-08-03T12:49:47.504Z,5.87
2018-08-03T12:52:16.141Z,5.87
2018-08-03T12:54:44.860Z,5.57
2018-08-03T12:57:13.647Z,5.77
2018-08-03T12:59:42.421Z,5.47
2018-08-03T13:02:11.090Z,5.90
2018-08-03T13:04:39.886Z,5.87
2018-08-03T13:07:08.682Z,5.67
2018-08-03T13:09:39.462Z,5.40
2018-08-03T13:12:08.249Z,5.93
2018-08-03T13:14:37.108Z,5.53
2018-08-03T13:17:05.850Z,5.70
2018-08-03T13:19:34.574Z,5.50
2018-08-03T13:22:03.330Z,5.80
2018-08-03T13:24:32.023Z,5.80
2018-08-03T13:27:00.761Z,5.73
2018-08-03T13:29:29.539Z,6.00
2018-08-03T13:31:58.255Z,6.23
2018-08-03T13:34:27.023Z,5.20
2018-08-03T13:36:55.703Z,5.60
2018-08-03T13:39:24.482Z,5.30
2018-08-03T13:41:53.179Z,6.03
2018-08-03T13:44:21.893Z,5.10
2018-08-03T13:46:50.653Z,5.97
2018-08-03T13:49:19.256Z,5.53
2018-08-03T13:51:49.018Z,6.00
2018-08-03T13:54:18.301Z,5.50
2018-08-03T13:56:47.024Z,5.33
2018-08-03T13:59:15.717Z,5.37
2018-08-03T14:01:55.297Z,5.77
2018-08-03T14:04:23.996Z,6.15
2018-08-03T14:06:52.684Z,5.53
2018-08-03T14:09:21.330Z,6.57
2018-08-03T14:12:06.840Z,5.47
2018-08-03T14:15:42.627Z,5.50
2018-08-03T14:18:30.991Z,6.20
2018-08-03T14:20:59.667Z,5.42
2018-08-03T14:23:28.413Z,5.72
2018-08-03T14:25:57.041Z,5.80
2018-08-03T14:28:25.744Z,4.92
2018-08-03T14:30:54.563Z,4.70
2018-08-03T14:33:23.335Z,5.30
2018-08-03T14:35:52.344Z,5.40
2018-08-03T14:38:20.930Z,4.83
2018-08-03T14:40:49.639Z,4.45
2018-08-03T14:43:18.805Z,4.03
2018-08-03T14:45:47.803Z,3.83
2018-08-03T14:48:16.958Z,4.05
2018-08-03T14:50:45.827Z,4.20
2018-08-03T14:53:14.441Z,4.30
2018-08-03T14:55:43.051Z,4.05
2018-08-03T14:58:11.762Z,3.92
2018-08-03T15:00:41.329Z,3.80
2018-08-03T15:03:10.432Z,4.45
2018-08-03T15:05:39.636Z,3.98
2018-08-03T15:08:08.298Z,3.58
2018-08-03T15:10:36.880Z,3.55
2018-08-03T15:13:05.683Z,3.55
2018-08-03T15:15:34.289Z,3.50
2018-08-03T15:18:02.959Z,3.60
2018-08-03T15:20:31.673Z,3.83
2018-08-03T15:23:00.308Z,4.15
2018-08-03T15:25:28.942Z,3.75
2018-08-03T15:27:57.546Z,3.65
2018-08-03T15:30:26.141Z,4.30
2018-08-03T15:32:54.755Z,4.03
2018-08-03T15:35:23.449Z,3.47
2018-08-03T15:37:52.079Z,3.83
2018-08-03T15:40:20.715Z,4.15
2018-08-03T15:42:49.400Z,3.42
2018-08-03T15:45:18.002Z,3.70
2018-08-03T15:47:46.679Z,3.25
2018-08-03T15:50:15.294Z,3.80
2018-08-03T15:52:43.903Z,3.70
2018-08-03T15:55:12.545Z,4.65
2018-08-03T15:57:47.500Z,3.85
2018-08-03T16:00:16.182Z,3.40
2018-08-03T16:02:44.837Z,3.70
2018-08-03T16:05:13.454Z,3.22
2018-08-03T16:07:42.101Z,3.22
2018-08-03T16:10:10.863Z,3.58
2018-08-03T16:12:39.522Z,3.40
2018-08-03T16:15:08.390Z,3.45
2018-08-03T16:17:37.047Z,4.28
2018-08-03T16:20:06.174Z,4.10
2018-08-03T16:22:35.049Z,3.55
2018-08-03T16:25:07.333Z,4.20
2018-08-03T16:27:36.097Z,3.87
2018-08-03T16:30:05.388Z,4.03
2018-08-03T16:32:34.122Z,4.35
2018-08-03T16:35:02.907Z,4.78
2018-08-03T16:37:32.004Z,4.10
2018-08-03T16:40:00.678Z,4.85
2018-08-03T16:42:30.391Z,4.45
2018-08-03T16:44:59.113Z,4.80
2018-08-03T16:47:27.831Z,5.00
2018-08-03T16:49:56.596Z,5.10
2018-08-03T16:52:25.417Z,4.83
2018-08-03T16:54:54.106Z,4.87
2018-08-03T16:57:24.109Z,5.00
2018-08-03T16:59:52.984Z,5.67
2018-08-03T17:02:21.999Z,4.87
2018-08-03T17:04:50.736Z,5.25
2018-08-03T17:07:19.520Z,4.87
2018-08-03T17:09:48.224Z,5.08
2018-08-03T17:12:17.421Z,5.87
2018-08-03T17:14:46.078Z,5.15
2018-08-03T17:17:14.785Z,5.85
2018-08-03T17:19:43.586Z,5.80
2018-08-03T17:22:12.755Z,6.67
2018-08-03T17:24:41.570Z,6.62
2018-08-03T17:27:10.370Z,7.53
2018-08-03T17:29:39.404Z,7.20
2018-08-03T17:32:08.163Z,6.90
2018-08-03T17:34:36.920Z,6.97
2018-08-03T17:37:05.685Z,7.15
2018-08-03T17:39:34.427Z,8.95
2018-08-03T17:42:03.301Z,7.70
2018-08-03T17:44:31.978Z,8.33
2018-08-03T17:47:00.730Z,9.25
2018-08-03T17:49:29.459Z,8.95
2018-08-03T17:51:58.310Z,10.03
2018-08-03T17:54:27.181Z,10.37
2018-08-03T17:56:55.935Z,9.53
2018-08-03T17:59:24.646Z,10.33
2018-08-03T18:01:53.444Z,10.03
2018-08-03T18:04:22.116Z,11.10
2018-08-03T18:06:51.022Z,10.50
2018-08-03T18:09:19.820Z,10.30
2018-08-03T18:11:55.131Z,10.87
2018-08-03T18:14:24.012Z,11.10
2018-08-03T18:16:53.070Z,10.53
2018-08-03T18:19:21.712Z,10.77
2018-08-03T18:21:50.450Z,10.73
2018-08-03T18:24:19.188Z,11.57
2018-08-03T18:26:47.976Z,11.30
2018-08-03T18:29:19.932Z,11.73
2018-08-03T18:31:48.720Z,12.60
2018-08-03T18:34:17.454Z,11.20
2018-08-03T18:36:46.235Z,11.63
2018-08-03T18:39:14.926Z,12.87
2018-08-03T18:41:43.700Z,11.67
2018-08-03T18:44:12.646Z,11.23
2018-08-03T18:46:41.691Z,11.70
2018-08-03T18:49:11.194Z,12.00
2018-08-03T18:51:40.181Z,11.63
2018-08-03T18:54:09.265Z,12.57
2018-08-03T18:56:39.260Z,11.60
2018-08-03T18:59:08.064Z,12.57
2018-08-03T19:01:36.867Z,11.93
2018-08-03T19:04:05.575Z,13.00
2018-08-03T19:06:34.361Z,13.40
2018-08-03T19:09:03.158Z,12.43
2018-08-03T19:11:32.071Z,12.40
2018-08-03T19:14:00.789Z,13.93
2018-08-03T19:16:29.539Z,11.50
2018-08-03T19:18:58.327Z,12.43
2018-08-03T19:21:27.112Z,12.57
2018-08-03T19:23:55.921Z,12.43
2018-08-03T19:26:24.657Z,11.40
2018-08-03T19:28:53.486Z,12.43
2018-08-03T19:31:22.355Z,12.43
2018-08-03T19:33:51.070Z,12.57
2018-08-03T19:36:19.794Z,12.97
2018-08-03T19:38:48.484Z,12.40
2018-08-03T19:41:17.126Z,13.30
2018-08-03T19:43:45.770Z,13.63
2018-08-03T19:46:14.419Z,13.43
2018-08-03T19:48:43.110Z,15.13
2018-08-03T19:51:11.894Z,14.33
2018-08-03T19:53:40.581Z,12.97
2018-08-03T19:56:09.270Z,13.47
2018-08-03T19:58:37.986Z,13.40
2018-08-03T20:01:06.642Z,13.63
2018-08-03T20:03:35.898Z,12.37
2018-08-03T20:06:04.572Z,13.03
2018-08-03T20:08:33.271Z,14.10
2018-08-03T20:11:01.946Z,13.40
2018-08-03T20:13:30.669Z,13.57
2018-08-03T20:15:59.449Z,12.47
2018-08-03T20:18:29.078Z,13.20
2018-08-03T20:20:57.857Z,13.47
2018-08-03T20:23:26.578Z,13.80
2018-08-03T20:25:55.336Z,13.60
2018-08-03T20:28:24.118Z,14.10
2018-08-03T20:30:52.797Z,14.40
2018-08-03T20:33:21.494Z,13.60
2018-08-03T20:35:50.250Z,13.20
2018-08-03T20:38:19.143Z,14.57
2018-08-03T20:40:47.860Z,14.97
2018-08-03T20:43:16.537Z,14.80
2018-08-03T20:45:45.220Z,14.67
2018-08-03T20:48:14.183Z,15.00
2018-08-03T20:50:42.967Z,14.47
2018-08-03T20:53:11.735Z,14.10
2018-08-03T20:55:40.422Z,14.63
2018-08-03T20:58:09.214Z,14.90
2018-08-03T21:00:37.919Z,15.40
2018-08-03T21:03:06.700Z,14.27
2018-08-03T21:05:35.526Z,13.03
2018-08-03T21:08:04.213Z,14.90
2018-08-03T21:10:32.959Z,13.90
2018-08-03T21:13:01.690Z,14.50
2018-08-03T21:15:30.300Z,15.37
2018-08-03T21:17:58.953Z,14.50
2018-08-03T21:20:27.564Z,14.73
2018-08-03T21:22:56.171Z,14.00
2018-08-03T21:25:24.808Z,14.17
2018-08-03T21:27:53.421Z,15.00
2018-08-03T21:30:22.058Z,14.23
2018-08-03T21:32:50.698Z,14.63
2018-08-03T21:35:19.437Z,15.47
2018-08-03T21:37:49.257Z,15.00
2018-08-03T21:40:17.852Z,14.27
2018-08-03T21:42:46.521Z,13.50
2018-08-03T21:45:15.215Z,14.27
2018-08-03T21:47:43.869Z,13.63
2018-08-03T21:50:12.585Z,13.60
2018-08-03T21:52:41.210Z,14.30
2018-08-03T21:55:09.907Z,13.83
2018-08-03T21:57:38.534Z,15.90
2018-08-03T22:00:09.994Z,15.23
2018-08-03T22:02:38.662Z,14.93
2018-08-03T22:05:07.406Z,15.40
2018-08-03T22:07:35.994Z,14.70
2018-08-03T22:10:05.124Z,14.13
2018-08-03T22:12:33.743Z,13.07
2018-08-03T22:15:02.413Z,16.00
2018-08-03T22:17:31.115Z,14.60
2018-08-03T22:19:59.778Z,15.83
2018-08-03T22:22:28.454Z,15.00
2018-08-03T22:24:57.154Z,14.83
2018-08-03T22:27:25.832Z,15.87
2018-08-03T22:29:54.535Z,15.80
2018-08-03T22:32:23.209Z,16.27
2018-08-03T22:34:51.898Z,15.83
2018-08-03T22:37:20.687Z,15.97
2018-08-03T22:39:49.606Z,15.20
2018-08-03T22:42:18.277Z,16.70
2018-08-03T22:44:46.944Z,14.50
2018-08-03T22:47:15.666Z,15.50
2018-08-03T22:49:44.401Z,14.90
2018-08-03T22:52:13.174Z,16.03
2018-08-03T22:54:41.849Z,15.00
2018-08-03T22:57:10.649Z,15.20
2018-08-03T22:59:39.302Z,15.27
2018-08-03T23:02:08.990Z,16.10
2018-08-03T23:04:38.846Z,15.20
2018-08-03T23:07:07.638Z,17.50
2018-08-03T23:09:36.326Z,17.20
2018-08-03T23:12:04.994Z,17.83
2018-08-03T23:14:33.598Z,17.73
2018-08-03T23:17:02.264Z,17.83
2018-08-03T23:19:30.923Z,18.07
2018-08-03T23:21:59.614Z,18.93
2018-08-03T23:24:28.263Z,19.27
2018-08-03T23:26:56.902Z,20.57
2018-08-03T23:29:25.591Z,18.50
2018-08-03T23:31:54.278Z,17.50
2018-08-03T23:34:22.950Z,18.23
2018-08-03T23:36:51.641Z,17.50
2018-08-03T23:39:20.314Z,17.93
2018-08-03T23:41:49.005Z,17.17
2018-08-03T23:44:17.754Z,16.67
2018-08-03T23:46:46.410Z,16.70
2018-08-03T23:49:15.094Z,17.63
2018-08-03T23:51:43.895Z,17.70
2018-08-03T23:54:12.710Z,17.00
2018-08-03T23:56:41.318Z,18.13
2018-08-03T23:59:09.953Z,16.80
